Aeroporto :
LOGIN :

Iscrizione | Disclaimer

   EN    FR    IT 

 










Sommario :    VFR   VFR Marginale   IFR   IFR Intensivo   IFR Molto Intensivo
Visibilità : 
Base nubi : 
>= 8 km
>= 3000ft
5 / 8 km
1000 / 3000 ft
1500m / 5 km
500 / 1000 ft
800 / 1500m
200 / 500 ft
< 800m
< 200 ft
Simboli :   Temporali  Nebbia  Neve Forte  Precipitazioni Forti  Vento > 20 kt
SIGMETs :   Varie  Temporali  Ghiacco  Turbolenza  Onda orograficha  Ceneri Vulcaniche






- Altitudine del aeroporto : 461 ft
- Codice IATA : WIE


ETOU - Wiesbaden Army

ULTIMO METAR :
  • 271401Z 13010KT 8000 -SN BR OVC009 02/01 A2935 RMK RAE1359SNB1359 CIG 009V011 CIG 007 RWY07 SLP948 $

METARs OBSOLETI :
  • 271346Z 13009KT 9999 -RA OVC010 02/01 A2937 RMK AO2A CIG 008 RWY07 PRESFR SLP955 $
  • 271256Z 14010KT 9999 -RA BKN008 OVC013 02/01 A2943 RMK AO2A RAE24RASNB24E33RAB33E46SNB46E50RAB50 CIG 008V013 SLP975 P0004 T00230010 $
  • 271234Z 17010KT 9999 -RA SCT009 OVC012 03/01 A2945 RMK RAE24RASNB24E33RAB33 CIG 010 RWY07 PRESFR SLP981 $
  • 271226Z 16013KT 9000 -RASN SCT010 BKN014 03/01 A2947 RMK RAE24RASNB24 CIG 010V016 CIG 010 RWY07 SLP988 $
  • 271156Z 17013KT 9999 -RA BKN010 OVC017 03/01 A2950 RMK AO2A RAE14RASNB14E25RAB25 PRESFR SLP998 P0003 60004 7//// T00320012 10042 20031 57053
  • 271131Z 19009KT 9999 -RA BKN010 OVC019 03/01 A2953 RMK RAE14RASNB14E25RAB25 PRESFR SLP008 $
  • 271115Z 20011KT 9999 -RASN BKN011 OVC019 03/01 A2955 RMK RAE14RASNB14 SLP015 $

TAF TAF ETOU
Valido dal 27 a 12 ore il 28 a 18 ore UTC


271204Z 2712/2818 19012KT 9000 -RASN BKN010 OVC015 620108 510902 QNH2940INS
TEMPO 2712/2715 16010G15KT 5000 -RASN OVC007 620084 610505
BECMG 2714/2715 VRB06KT 2400 -SN BR OVC005 620069 QNH2929INS
BECMG 2719/2720 33012KT 5000 -SN BR OVC010 620105 QNH2947INS
BECMG 2723/2724 30012KT 9999 NSW SCT030 QNH2955INS
TEMPO 2800/2805 29010G25KT 510003
BECMG 2808/2809 25006KT 9999 SCT015 QNH2973INS
BECMG 2817/2818 18009KT 9999 FEW020 BKN050 620504 QNH2991INS TX03/2712Z TNM02/2806Z



MetMap, La meteo Aeronautica in un colpo d'occhio ! - Copyright ORBIFLY Dicembre 2007 - Disclaimer

ORBIFLY MET'MAP TEAM :

Programmazione e sviluppo : Alexandra Zaïnal
Concezione : Baudouin d'Aumeries
Aiuto per la programmazione : Marc-Olivier Méhu
Supporto tecnico e logistico : Manuel Goepfert
Aiuto per la traduzione : Arnaldo La Scala

Contatto : metmap@orbifly.com




FONTI E CREDITI :

   NOAA